Time;durP1;ratioP1;P1;durP2;ratioP2;P2;SDS_P1;SDS_P2;PMS_P1;PMS_P2;Temp;Humidity;BMP_temperature;BMP_pressure;BME280_temperature;BME280_humidity;BME280_pressure;Samples;Min_cycle;Max_cycle;Signal;HPM_P1;HPM_P2
2022/02/16 00:00:00;;;;;;;3.25;1.30;;;;;;;6.60;100.00;99854.13;679656;28;1272;-82
2022/02/16 00:00:31;;;;;;;3.08;1.20;;;;;;;6.62;100.00;99837.69;677761;29;1709;-82
2022/02/16 00:00:54;;;;;;;4.00;1.20;;;;;;;6.52;100.00;99841.16;672330;29;4370;-81
2022/02/16 00:01:15;;;;;;;3.40;1.42;;;;;;;6.48;100.00;99858.47;674032;29;3650;-81
2022/02/16 00:01:35;;;;;;;2.70;1.20;;;;;;;6.52;100.00;99828.19;672895;29;1891;-83
2022/02/16 00:01:59;;;;;;;3.53;1.40;;;;;;;6.51;100.00;99843.75;673425;29;2735;-82
2022/02/16 00:02:25;;;;;;;3.30;1.40;;;;;;;6.54;100.00;99859.34;670861;29;1223;-83
2022/02/16 00:02:46;;;;;;;3.40;1.23;;;;;;;6.60;100.00;99828.16;674156;29;1763;-82
2022/02/16 00:03:08;;;;;;;3.55;1.30;;;;;;;6.60;100.00;99833.34;671022;29;1574;-81
2022/02/16 00:03:29;;;;;;;2.75;1.25;;;;;;;6.54;100.00;99851.56;671432;29;1414;-80
2022/02/16 00:03:50;;;;;;;2.78;1.20;;;;;;;6.44;100.00;99822.13;669816;29;4462;-81
2022/02/16 00:04:12;;;;;;;4.57;1.20;;;;;;;6.50;100.00;99836.84;667189;29;1611;-82
2022/02/16 00:04:40;;;;;;;2.53;1.10;;;;;;;6.46;100.00;99831.63;670284;29;3729;-82
2022/02/16 00:05:15;;;;;;;2.72;1.23;;;;;;;6.46;100.00;99835.97;672907;29;2071;-83
2022/02/16 00:05:37;;;;;;;3.60;1.20;;;;;;;6.53;100.00;99829.91;678810;28;3781;-81
2022/02/16 00:05:58;;;;;;;3.40;1.20;;;;;;;6.47;100.00;99841.16;680312;28;1750;-82
2022/02/16 00:06:18;;;;;;;3.63;1.10;;;;;;;6.51;100.00;99834.25;677538;29;1259;-81
2022/02/16 00:06:39;;;;;;;3.58;1.30;;;;;;;6.45;100.00;99855.00;677423;29;1810;-82
2022/02/16 00:07:02;;;;;;;3.92;1.33;;;;;;;6.43;100.00;99841.16;675979;28;4342;-82
2022/02/16 00:07:24;;;;;;;3.58;1.35;;;;;;;6.38;100.00;99835.97;678151;29;1344;-82
2022/02/16 00:07:52;;;;;;;2.70;1.20;;;;;;;6.44;100.00;99833.38;681500;28;4675;-82
2022/02/16 00:08:19;;;;;;;2.92;1.30;;;;;;;6.49;100.00;99820.38;680792;28;1851;-82
2022/02/16 00:08:39;;;;;;;3.30;1.27;;;;;;;6.51;100.00;99817.78;679777;29;1811;-82
2022/02/16 00:09:06;;;;;;;4.03;1.30;;;;;;;6.45;100.00;99834.22;678063;29;1363;-81
2022/02/16 00:09:32;;;;;;;3.25;1.27;;;;;;;6.50;100.00;99834.25;676049;29;1615;-81
2022/02/16 00:09:56;;;;;;;2.85;1.20;;;;;;;6.56;100.00;99816.03;669322;29;5229;-83
2022/02/16 00:10:20;;;;;;;2.92;1.30;;;;;;;6.61;100.00;99830.75;678896;28;1515;-83
2022/02/16 00:10:43;;;;;;;2.55;1.40;;;;;;;6.64;100.00;99820.34;680134;29;2048;-83
2022/02/16 00:11:17;;;;;;;3.83;1.73;;;;;;;6.55;100.00;99809.13;677858;29;1645;-83
2022/02/16 00:11:38;;;;;;;2.35;1.10;;;;;;;6.61;100.00;99838.53;677379;29;1530;-83
2022/02/16 00:12:05;;;;;;;2.60;1.10;;;;;;;6.59;100.00;99827.31;677572;29;1397;-82
2022/02/16 00:12:35;;;;;;;2.63;1.00;;;;;;;6.59;100.00;99849.78;672882;29;1064;-82
2022/02/16 00:12:56;;;;;;;2.72;1.10;;;;;;;6.54;100.00;99841.16;670973;29;4393;-82
2022/02/16 00:13:16;;;;;;;2.57;1.10;;;;;;;6.53;100.00;99836.84;670255;29;1409;-83
2022/02/16 00:13:38;;;;;;;3.20;1.10;;;;;;;6.59;100.00;99801.34;671070;29;1624;-82
2022/02/16 00:14:06;;;;;;;2.70;1.13;;;;;;;6.57;100.00;99803.06;672805;29;1412;-83
2022/02/16 00:14:30;;;;;;;3.10;1.10;;;;;;;6.51;100.00;99822.97;672269;29;1698;-82
2022/02/16 00:14:53;;;;;;;3.08;1.20;;;;;;;6.48;100.00;99824.72;675249;29;1906;-82
2022/02/16 00:15:14;;;;;;;3.05;1.30;;;;;;;6.59;100.00;99821.22;675081;29;4587;-82
2022/02/16 00:15:35;;;;;;;3.47;1.27;;;;;;;6.57;100.00;99839.41;674966;29;1785;-82
2022/02/16 00:15:56;;;;;;;4.35;1.45;;;;;;;6.55;100.00;99822.09;666596;29;4409;-83
2022/02/16 00:16:17;;;;;;;3.80;1.30;;;;;;;6.50;100.00;99816.06;676772;29;1538;-82
2022/02/16 00:16:40;;;;;;;3.50;1.40;;;;;;;6.42;100.00;99803.09;677493;29;1595;-81
2022/02/16 00:17:01;;;;;;;3.95;1.30;;;;;;;6.41;100.00;99823.00;672490;29;1099;-82
2022/02/16 00:17:22;;;;;;;2.85;1.30;;;;;;;6.35;100.00;99817.81;674025;29;3729;-82
2022/02/16 00:17:42;;;;;;;3.07;1.40;;;;;;;6.40;100.00;99808.28;678558;29;4577;-83
2022/02/16 00:18:05;;;;;;;2.90;1.25;;;;;;;6.44;100.00;99798.78;674709;29;1877;-83
2022/02/16 00:18:25;;;;;;;3.45;1.50;;;;;;;6.47;100.00;99799.63;675564;29;1437;-83
2022/02/16 00:18:46;;;;;;;3.75;1.75;;;;;;;6.43;100.00;99795.28;675935;29;1575;-82
2022/02/16 00:19:07;;;;;;;3.47;1.67;;;;;;;6.48;100.00;99803.94;677847;29;4300;-81
2022/02/16 00:19:30;;;;;;;4.07;1.50;;;;;;;6.44;100.00;99817.81;680483;29;1667;-82
2022/02/16 00:19:51;;;;;;;3.97;1.50;;;;;;;6.47;100.00;99791.81;679586;29;1992;-82
2022/02/16 00:20:12;;;;;;;3.80;1.43;;;;;;;6.48;100.00;99797.91;677156;29;1245;-82
2022/02/16 00:20:35;;;;;;;3.55;1.50;;;;;;;6.59;100.00;99796.13;675359;29;3677;-82
2022/02/16 00:21:05;;;;;;;2.75;1.33;;;;;;;6.69;100.00;99825.56;676267;29;1699;-84
2022/02/16 00:21:25;;;;;;;3.05;1.50;;;;;;;6.69;100.00;99796.97;677248;29;1783;-82
2022/02/16 00:21:49;;;;;;;3.90;1.70;;;;;;;6.70;100.00;99798.72;673099;29;1823;-83
2022/02/16 00:22:09;;;;;;;3.95;1.55;;;;;;;6.69;100.00;99791.78;676632;29;6104;-82
2022/02/16 00:22:33;;;;;;;3.63;1.42;;;;;;;6.69;100.00;99812.56;671905;29;1384;-83
2022/02/16 00:22:55;;;;;;;3.25;1.50;;;;;;;6.71;100.00;99789.19;671095;29;1392;-83
2022/02/16 00:23:16;;;;;;;2.72;1.30;;;;;;;6.73;100.00;99803.91;675201;29;1398;-83
2022/02/16 00:23:36;;;;;;;3.87;1.53;;;;;;;6.68;100.00;99826.41;669671;29;1568;-82
2022/02/16 00:24:01;;;;;;;3.33;1.30;;;;;;;6.68;100.00;99792.66;674078;29;3832;-83
2022/02/16 00:24:25;;;;;;;3.97;1.40;;;;;;;6.65;100.00;99811.69;672225;29;1865;-83
2022/02/16 00:24:48;;;;;;;3.78;1.52;;;;;;;6.69;100.00;99783.09;675457;29;1452;-83
2022/02/16 00:25:09;;;;;;;4.07;1.30;;;;;;;6.61;100.00;99815.16;674115;29;4804;-82
2022/02/16 00:25:32;;;;;;;3.05;1.35;;;;;;;6.58;100.00;99793.56;675544;29;1742;-83
2022/02/16 00:25:55;;;;;;;4.10;1.48;;;;;;;6.59;100.00;99827.31;677084;29;1745;-82
2022/02/16 00:26:16;;;;;;;4.43;1.50;;;;;;;6.51;100.00;99786.63;676122;29;1365;-83
2022/02/16 00:26:39;;;;;;;3.13;1.23;;;;;;;6.42;100.00;99826.44;669674;29;1550;-83
2022/02/16 00:27:00;;;;;;;3.72;1.30;;;;;;;6.43;100.00;99790.09;674856;29;3324;-83
2022/02/16 00:27:23;;;;;;;2.92;1.30;;;;;;;6.55;100.00;99827.28;673205;29;3736;-83
2022/02/16 00:27:43;;;;;;;2.63;1.10;;;;;;;6.57;100.00;99777.09;676261;29;1909;-82
2022/02/16 00:28:04;;;;;;;3.65;1.30;;;;;;;6.55;100.00;99803.91;676614;28;4401;-82
2022/02/16 00:28:31;;;;;;;2.45;1.20;;;;;;;6.59;100.00;99805.63;679699;29;1602;-82
2022/02/16 00:28:52;;;;;;;2.97;1.20;;;;;;;6.58;100.00;99784.00;670699;29;1930;-83
2022/02/16 00:29:13;;;;;;;2.80;1.20;;;;;;;6.52;100.00;99788.34;676526;29;1767;-82
2022/02/16 00:29:44;;;;;;;;;;;;;;;;;;;;;
2022/02/16 00:30:14;;;;;;;2.72;1.13;;;;;;;6.40;100.00;99787.50;676343;29;1577;-83
2022/02/16 00:30:34;;;;;;;3.13;1.23;;;;;;;6.44;100.00;99812.59;677455;29;1515;-83
2022/02/16 00:30:55;;;;;;;3.83;1.40;;;;;;;6.47;100.00;99822.97;671770;29;4396;-83
2022/02/16 00:31:21;;;;;;;3.10;1.30;;;;;;;6.51;100.00;99808.28;678990;28;3756;-83
2022/02/16 00:31:42;;;;;;;2.90;1.20;;;;;;;6.45;100.00;99809.16;676500;29;1801;-83
2022/02/16 00:32:14;;;;;;;2.63;1.08;;;;;;;6.39;100.00;99809.16;677423;29;1589;-83
2022/02/16 00:32:38;;;;;;;3.47;1.27;;;;;;;6.32;100.00;99780.63;680009;29;1449;-83
2022/02/16 00:32:59;;;;;;;4.28;1.20;;;;;;;6.25;100.00;99803.13;677674;29;1253;-83
2022/02/16 00:33:20;;;;;;;3.55;1.20;;;;;;;6.22;100.00;99779.78;677380;29;1965;-83
2022/02/16 00:33:41;;;;;;;3.67;1.23;;;;;;;6.19;100.00;99779.75;680107;28;3506;-84
2022/02/16 00:34:30;;;;;;;3.58;1.30;;;;;;;6.24;100.00;99778.03;667536;29;4359;-83
2022/02/16 00:34:55;;;;;;;3.05;1.20;;;;;;;6.43;100.00;99777.13;678817;29;1449;-83
2022/02/16 00:35:22;;;;;;;3.50;1.20;;;;;;;6.50;100.00;99784.91;675874;29;1247;-83
2022/02/16 00:35:42;;;;;;;2.58;1.20;;;;;;;6.53;100.00;99808.25;675146;29;1518;-82
2022/02/16 00:36:06;;;;;;;3.10;1.30;;;;;;;6.48;100.00;99808.28;675339;29;1876;-83
2022/02/16 00:36:29;;;;;;;3.03;1.20;;;;;;;6.43;100.00;99773.66;676173;29;893;-82
2022/02/16 00:36:56;;;;;;;2.85;1.30;;;;;;;6.41;100.00;99767.59;679542;28;4358;-82
2022/02/16 00:37:16;;;;;;;2.42;1.38;;;;;;;6.47;100.00;99789.22;680585;28;1465;-83
2022/02/16 00:37:51;;;;;;;3.70;1.20;;;;;;;6.48;100.00;99759.81;677466;29;1733;-82
2022/02/16 00:38:12;;;;;;;2.58;1.10;;;;;;;6.46;100.00;99763.28;674490;29;1849;-83
2022/02/16 00:38:41;;;;;;;2.75;1.30;;;;;;;6.47;100.00;99788.38;675873;29;1547;-82
2022/02/16 00:39:02;;;;;;;2.90;1.10;;;;;;;6.51;100.00;99794.41;679160;28;4471;-82
2022/02/16 00:39:27;;;;;;;2.45;1.13;;;;;;;6.55;100.00;99785.75;678387;29;1301;-82
2022/02/16 00:39:48;;;;;;;2.95;1.20;;;;;;;6.51;100.00;99802.19;677860;29;1950;-83
2022/02/16 00:40:15;;;;;;;3.13;1.20;;;;;;;6.43;100.00;99786.66;673509;29;4355;-83
2022/02/16 00:40:45;;;;;;;4.10;1.40;;;;;;;6.37;100.00;99787.53;672319;29;2163;-81
2022/02/16 00:41:07;;;;;;;2.97;1.25;;;;;;;6.31;100.00;99782.34;678492;29;1494;-83
2022/02/16 00:41:28;;;;;;;2.42;1.10;;;;;;;6.34;100.00;99759.00;680962;29;1332;-83
2022/02/16 00:42:02;;;;;;;2.03;1.00;;;;;;;6.36;100.00;99772.81;680494;29;1653;-82
2022/02/16 00:42:28;;;;;;;3.42;1.15;;;;;;;6.38;100.00;99758.09;677589;29;1444;-83
2022/02/16 00:42:49;;;;;;;4.70;1.33;;;;;;;6.40;100.00;99763.28;679320;28;4382;-82
2022/02/16 00:43:10;;;;;;;2.42;1.20;;;;;;;6.44;100.00;99778.84;676827;29;2930;-82
2022/02/16 00:43:31;;;;;;;2.03;1.00;;;;;;;6.51;100.00;99760.66;674212;29;3608;-83
2022/02/16 00:43:52;;;;;;;1.73;1.00;;;;;;;6.48;100.00;99809.13;675391;29;1410;-82
2022/02/16 00:44:15;;;;;;;2.60;1.10;;;;;;;6.54;100.00;99786.63;675051;29;1415;-82
2022/02/16 00:44:36;;;;;;;3.50;1.30;;;;;;;6.58;100.00;99809.13;674075;29;1770;-83
2022/02/16 00:44:56;;;;;;;2.90;1.10;;;;;;;6.59;100.00;99772.78;675427;29;1414;-82
2022/02/16 00:45:17;;;;;;;2.22;0.90;;;;;;;6.63;100.00;99755.44;675094;29;1274;-83
2022/02/16 00:45:38;;;;;;;1.85;0.80;;;;;;;6.61;100.00;99778.81;676556;29;1349;-82
2022/02/16 00:45:59;;;;;;;2.25;1.00;;;;;;;6.62;100.00;99779.69;674783;29;4414;-83
2022/02/16 00:46:19;;;;;;;1.88;1.00;;;;;;;6.61;100.00;99768.41;674761;29;3766;-83
2022/02/16 00:46:46;;;;;;;2.70;1.05;;;;;;;6.60;100.00;99797.84;672847;29;1690;-83
2022/02/16 00:47:10;;;;;;;2.38;1.08;;;;;;;6.57;100.00;99803.06;672898;29;2303;-83
2022/02/16 00:47:32;;;;;;;2.83;1.10;;;;;;;6.50;100.00;99771.94;672699;29;1861;-84
2022/02/16 00:47:53;;;;;;;3.08;1.10;;;;;;;6.47;100.00;99802.22;673020;29;1965;-83
2022/02/16 00:48:21;;;;;;;2.88;1.20;;;;;;;6.41;100.00;99777.97;673744;29;1549;-83
2022/02/16 00:48:46;;;;;;;3.10;1.10;;;;;;;6.44;100.00;99755.50;675871;29;1499;-83
2022/02/16 00:49:08;;;;;;;3.30;1.10;;;;;;;6.45;100.00;99754.63;673768;29;4320;-82
2022/02/16 00:49:30;;;;;;;2.65;1.10;;;;;;;6.55;100.00;99778.84;672834;29;1934;-84
2022/02/16 00:49:54;;;;;;;2.80;1.03;;;;;;;6.55;100.00;99785.75;678839;29;3591;-83
2022/02/16 00:50:14;;;;;;;2.17;0.93;;;;;;;6.61;100.00;99775.34;677142;29;1463;-83
2022/02/16 00:50:43;;;;;;;2.15;1.00;;;;;;;6.65;100.00;99753.69;675984;29;1376;-83
2022/02/16 00:51:07;;;;;;;3.47;1.20;;;;;;;6.61;100.00;99754.56;669756;29;1672;-82
2022/02/16 00:51:29;;;;;;;3.90;1.48;;;;;;;6.55;100.00;99777.94;669572;29;1493;-83
2022/02/16 00:51:49;;;;;;;2.30;1.15;;;;;;;6.51;100.00;99755.47;675735;29;4364;-83
2022/02/16 00:52:10;;;;;;;1.92;1.00;;;;;;;6.48;100.00;99785.78;678902;29;1268;-82
2022/02/16 00:52:43;;;;;;;1.83;0.90;;;;;;;6.47;100.00;99768.47;676279;29;1428;-82
2022/02/16 00:53:06;;;;;;;2.90;1.00;;;;;;;6.43;100.00;99753.75;674500;29;3513;-83
2022/02/16 00:53:30;;;;;;;2.75;1.10;;;;;;;6.50;100.00;99757.19;675551;29;1297;-83
2022/02/16 00:53:54;;;;;;;2.15;1.08;;;;;;;6.56;100.00;99769.31;677465;29;1296;-83
2022/02/16 00:54:19;;;;;;;3.72;1.30;;;;;;;6.65;100.00;99779.69;679832;29;2025;-82
2022/02/16 00:54:40;;;;;;;2.83;1.07;;;;;;;6.67;100.00;99764.94;677105;29;1833;-83
2022/02/16 00:55:02;;;;;;;2.72;1.00;;;;;;;6.73;100.00;99757.13;659687;29;4312;-84
2022/02/16 00:55:23;;;;;;;2.90;1.00;;;;;;;6.71;100.00;99778.78;674802;29;2130;-83
2022/02/16 00:55:52;;;;;;;2.58;0.98;;;;;;;6.67;100.00;99779.66;678732;29;1550;-83
2022/02/16 00:56:14;;;;;;;1.75;0.82;;;;;;;6.70;100.00;99762.34;676133;29;2723;-83
2022/02/16 00:56:35;;;;;;;2.05;1.08;;;;;;;6.70;100.00;99745.88;678004;29;1583;-83
2022/02/16 00:56:57;;;;;;;1.98;1.10;;;;;;;6.67;100.00;99757.13;677158;29;1878;-83
2022/02/16 00:57:21;;;;;;;2.38;1.00;;;;;;;6.57;100.00;99753.72;673232;29;3748;-83
2022/02/16 00:57:42;;;;;;;2.40;1.00;;;;;;;6.51;100.00;99769.31;675026;29;2235;-83
2022/02/16 00:58:12;;;;;;;1.63;0.87;;;;;;;6.46;100.00;99779.69;676075;29;4363;-83
2022/02/16 00:58:35;;;;;;;3.00;1.10;;;;;;;6.41;100.00;99776.28;675606;29;1625;-83
2022/02/16 00:58:59;;;;;;;2.90;1.20;;;;;;;6.39;100.00;99769.34;673146;29;1799;-84
2022/02/16 00:59:25;;;;;;;2.17;1.00;;;;;;;6.44;100.00;99765.03;677878;29;2146;-83
2022/02/16 00:59:55;;;;;;;2.20;1.00;;;;;;;6.49;100.00;99742.47;674618;29;1985;-83
2022/02/16 01:00:17;;;;;;;2.67;1.20;;;;;;;6.43;100.00;99769.31;673849;29;1559;-82
2022/02/16 01:00:52;;;;;;;2.10;1.05;;;;;;;6.46;100.00;99758.94;677571;29;1470;-83
2022/02/16 01:01:13;;;;;;;3.00;1.15;;;;;;;6.51;100.00;99784.91;671683;29;4946;-83
2022/02/16 01:01:33;;;;;;;4.10;1.17;;;;;;;6.61;100.00;99752.84;674793;29;1925;-81
2022/02/16 01:01:54;;;;;;;3.23;1.10;;;;;;;6.58;100.00;99752.00;673511;29;1571;-82
2022/02/16 01:02:15;;;;;;;2.78;1.10;;;;;;;6.59;100.00;99764.09;677929;29;1344;-83
2022/02/16 01:02:35;;;;;;;3.08;1.25;;;;;;;6.67;100.00;99738.97;678315;29;3491;-84
2022/02/16 01:03:03;;;;;;;2.47;1.15;;;;;;;6.73;100.00;99741.56;677232;29;1486;-83
2022/02/16 01:03:27;;;;;;;3.17;1.15;;;;;;;6.71;100.00;99732.03;680141;28;2336;-82
2022/02/16 01:03:54;;;;;;;3.15;1.30;;;;;;;6.74;100.00;99743.28;683147;28;1671;-83
2022/02/16 01:04:26;;;;;;;3.13;1.30;;;;;;;6.76;100.00;99751.94;680705;28;5104;-83
2022/02/16 01:04:53;;;;;;;3.25;1.20;;;;;;;6.82;100.00;99743.25;674701;29;1801;-83
2022/02/16 01:05:18;;;;;;;3.38;1.20;;;;;;;6.76;100.00;99738.94;675017;29;1576;-83
2022/02/16 01:05:48;;;;;;;2.65;1.20;;;;;;;6.79;100.00;99757.09;678659;29;1309;-83
2022/02/16 01:06:12;;;;;;;4.45;1.40;;;;;;;6.69;100.00;99754.53;677519;29;1605;-83
2022/02/16 01:06:36;;;;;;;3.00;1.33;;;;;;;6.60;100.00;99761.50;676456;29;4373;-83
2022/02/16 01:07:06;;;;;;;3.03;1.27;;;;;;;6.60;100.00;99752.84;674090;29;4478;-83
2022/02/16 01:07:30;;;;;;;2.72;1.27;;;;;;;6.60;100.00;99750.25;677459;29;1370;-83
2022/02/16 01:07:53;;;;;;;3.03;1.20;;;;;;;6.54;100.00;99750.28;676504;29;1937;-83
2022/02/16 01:08:16;;;;;;;2.80;1.20;;;;;;;6.52;100.00;99749.41;677303;29;1281;-82
2022/02/16 01:08:37;;;;;;;3.30;1.55;;;;;;;6.62;100.00;99761.50;678872;29;1570;-83
2022/02/16 01:09:00;;;;;;;3.45;1.60;;;;;;;6.62;100.00;99744.19;682345;28;3784;-83
2022/02/16 01:09:24;;;;;;;2.50;1.38;;;;;;;6.55;100.00;99733.81;676824;29;1711;-84
2022/02/16 01:09:48;;;;;;;2.88;1.27;;;;;;;6.56;100.00;99744.22;679131;28;3420;-83
2022/02/16 01:10:11;;;;;;;2.92;1.30;;;;;;;6.58;100.00;99723.44;677800;29;4892;-84
2022/02/16 01:10:39;;;;;;;3.47;1.90;;;;;;;6.59;100.00;99748.50;677417;29;1400;-82
2022/02/16 01:11:03;;;;;;;3.17;1.40;;;;;;;6.70;100.00;99720.78;672360;29;1325;-84
2022/02/16 01:11:23;;;;;;;3.83;1.73;;;;;;;6.74;100.00;99739.81;675303;29;1649;-83
2022/02/16 01:11:56;;;;;;;2.95;1.20;;;;;;;6.76;100.00;99744.13;671999;29;1538;-82
2022/02/16 01:12:24;;;;;;;2.80;1.15;;;;;;;6.76;100.00;99733.75;677571;29;3740;-83
2022/02/16 01:12:55;;;;;;;2.92;1.10;;;;;;;6.65;100.00;99738.13;673277;28;4397;-84
2022/02/16 01:13:18;;;;;;;3.13;1.30;;;;;;;6.60;100.00;99745.06;676461;29;1451;-83
2022/02/16 01:13:48;;;;;;;2.58;1.00;;;;;;;6.56;100.00;99719.97;673663;29;2198;-84
2022/02/16 01:14:11;;;;;;;2.90;1.23;;;;;;;6.43;100.00;99771.94;674278;29;1194;-84
2022/02/16 01:14:40;;;;;;;3.42;1.38;;;;;;;6.45;100.00;99731.25;676064;29;1379;-83
2022/02/16 01:15:24;;;;;;;3.47;1.40;;;;;;;6.52;100.00;99760.69;670942;29;1690;-84
2022/02/16 01:15:48;;;;;;;2.90;1.33;;;;;;;6.54;100.00;99722.56;680507;29;1585;-84
2022/02/16 01:16:09;;;;;;;2.50;1.20;;;;;;;6.59;100.00;99754.59;677221;29;4818;-85
2022/02/16 01:16:35;;;;;;;3.78;1.90;;;;;;;6.67;100.00;99745.91;673616;29;1342;-84
2022/02/16 01:17:14;;;;;;;3.08;1.30;;;;;;;6.67;100.00;99741.56;677538;29;2401;-83
2022/02/16 01:17:53;;;;;;;2.83;1.30;;;;;;;6.67;100.00;99743.31;678029;29;1242;-84
2022/02/16 01:18:29;;;;;;;2.72;1.20;;;;;;;6.60;100.00;99745.91;677356;29;1631;-83
2022/02/16 01:18:51;;;;;;;2.55;1.30;;;;;;;6.57;100.00;99714.75;672437;29;5284;-84
2022/02/16 01:19:18;;;;;;;2.90;1.33;;;;;;;6.65;100.00;99735.53;673592;29;4351;-84
2022/02/16 01:19:56;;;;;;;2.40;1.30;;;;;;;6.69;100.00;99747.63;674698;29;1969;-84
2022/02/16 01:20:26;;;;;;;2.63;1.10;;;;;;;6.75;100.00;99715.56;674943;29;1451;-84
2022/02/16 01:21:03;;;;;;;2.72;1.20;;;;;;;6.75;100.00;99703.44;674183;29;1222;-83
2022/02/16 01:21:23;;;;;;;2.33;1.20;;;;;;;6.68;100.00;99743.28;678195;29;1685;-84
2022/02/16 01:21:58;;;;;;;2.70;1.20;;;;;;;6.65;100.00;99730.31;678626;29;1580;-84
2022/02/16 01:22:19;;;;;;;3.13;1.30;;;;;;;6.59;100.00;99757.19;677512;29;4954;-84
2022/02/16 01:22:40;;;;;;;3.55;1.42;;;;;;;6.61;100.00;99710.44;681493;28;1744;-84
2022/02/16 01:23:07;;;;;;;3.72;1.30;;;;;;;6.55;100.00;99705.25;680421;28;1279;-84
2022/02/16 01:23:33;;;;;;;3.85;1.50;;;;;;;6.54;100.00;99721.72;680284;29;1319;-82
2022/02/16 01:23:57;;;;;;;3.22;1.42;;;;;;;6.59;100.00;99702.66;679451;28;1736;-82
2022/02/16 01:24:29;;;;;;;3.45;1.40;;;;;;;6.58;100.00;99736.41;676570;29;1430;-84
2022/02/16 01:25:02;;;;;;;3.15;1.40;;;;;;;6.59;100.00;99745.91;674688;29;4458;-84
2022/02/16 01:25:23;;;;;;;3.40;1.40;;;;;;;6.55;100.00;99744.19;673760;29;3287;-83
2022/02/16 01:25:46;;;;;;;2.67;1.30;;;;;;;6.59;100.00;99733.81;674906;29;1915;-84
2022/02/16 01:26:39;;;;;;;4.43;1.70;;;;;;;6.66;100.00;99719.06;678571;29;1564;-84
2022/02/16 01:27:07;;;;;;;4.70;1.60;;;;;;;6.70;100.00;99701.72;679303;29;1347;-83
2022/02/16 01:27:32;;;;;;;4.03;1.70;;;;;;;6.62;100.00;99718.22;678750;29;1594;-83
2022/02/16 01:28:01;;;;;;;4.05;1.50;;;;;;;6.61;100.00;99700.03;679128;29;4321;-84
2022/02/16 01:28:25;;;;;;;4.60;1.50;;;;;;;6.60;100.00;99719.09;680750;29;3228;-84
2022/02/16 01:28:46;;;;;;;3.55;1.50;;;;;;;6.62;100.00;99699.19;681000;29;1657;-83
2022/02/16 01:29:15;;;;;;;3.47;1.38;;;;;;;6.55;100.00;99700.06;676793;29;2602;-84
2022/02/16 01:29:45;;;;;;;4.15;1.50;;;;;;;6.64;100.00;99721.66;676598;29;1853;-83
2022/02/16 01:30:40;;;;;;;3.67;1.45;;;;;;;6.51;100.00;99699.22;672085;29;1607;-84
2022/02/16 01:31:15;;;;;;;4.03;1.52;;;;;;;6.56;100.00;99718.25;676657;28;4319;-84
2022/02/16 01:31:45;;;;;;;3.55;1.75;;;;;;;6.61;100.00;99700.91;668715;29;3539;-84
2022/02/16 01:32:06;;;;;;;4.23;1.80;;;;;;;6.59;100.00;99722.53;676685;29;1873;-84
2022/02/16 01:32:37;;;;;;;4.35;1.77;;;;;;;6.52;100.00;99723.44;675897;29;2019;-84
2022/02/16 01:33:03;;;;;;;4.55;1.80;;;;;;;6.46;100.00;99712.19;674481;29;1209;-84
2022/02/16 01:33:41;;;;;;;4.40;1.70;;;;;;;6.47;100.00;99713.94;677337;29;1377;-84
2022/02/16 01:34:02;;;;;;;2.88;1.40;;;;;;;6.43;100.00;99721.75;675480;29;4332;-84
2022/02/16 01:34:34;;;;;;;4.03;1.70;;;;;;;6.44;100.00;99726.06;680112;29;1594;-84
2022/02/16 01:35:00;;;;;;;4.43;1.70;;;;;;;6.47;100.00;99703.53;676655;29;2300;-83
2022/02/16 01:35:22;;;;;;;4.30;1.90;;;;;;;6.54;100.00;99708.72;680714;29;1630;-85
2022/02/16 01:35:47;;;;;;;3.67;1.70;;;;;;;6.57;100.00;99701.78;680352;28;1605;-84
2022/02/16 01:36:13;;;;;;;3.85;1.77;;;;;;;6.57;100.00;99693.97;674404;29;1580;-84
2022/02/16 01:36:39;;;;;;;3.88;1.80;;;;;;;6.56;100.00;99718.25;677292;29;1680;-83
2022/02/16 01:37:02;;;;;;;3.63;1.70;;;;;;;6.52;100.00;99690.56;674998;29;4397;-84
2022/02/16 01:37:28;;;;;;;3.70;1.80;;;;;;;6.54;100.00;99721.72;673881;29;1634;-84
2022/02/16 01:37:52;;;;;;;4.10;1.92;;;;;;;6.52;100.00;99690.56;675702;29;1583;-84
2022/02/16 01:38:13;;;;;;;5.35;2.13;;;;;;;6.48;100.00;99707.88;671574;29;2395;-83
2022/02/16 01:38:38;;;;;;;4.50;2.08;;;;;;;6.45;100.00;99704.41;676020;29;2423;-84
2022/02/16 01:39:24;;;;;;;4.78;2.20;;;;;;;6.42;100.00;99707.88;672961;29;2829;-84
2022/02/16 01:39:50;;;;;;;4.25;2.10;;;;;;;6.38;100.00;99724.34;674874;29;1973;-84
2022/02/16 01:40:14;;;;;;;4.05;2.15;;;;;;;6.41;100.00;99719.16;673338;29;5065;-84
2022/02/16 01:40:42;;;;;;;3.83;2.22;;;;;;;6.53;100.00;99702.66;675924;29;1590;-84
2022/02/16 01:41:09;;;;;;;4.00;2.22;;;;;;;6.60;100.00;99706.09;672037;29;1912;-83
2022/02/16 01:41:31;;;;;;;5.28;2.15;;;;;;;6.70;100.00;99709.53;672360;29;3257;-83
2022/02/16 01:42:14;;;;;;;4.25;2.10;;;;;;;6.56;100.00;99670.63;674795;29;3726;-84
2022/02/16 01:42:41;;;;;;;5.15;2.38;;;;;;;6.51;100.00;99719.09;679002;29;1375;-83
2022/02/16 01:43:16;;;;;;;4.35;2.20;;;;;;;6.68;100.00;99693.09;680385;28;5077;-83
2022/02/16 01:43:47;;;;;;;4.90;2.60;;;;;;;6.69;100.00;99685.28;676454;29;2051;-84
2022/02/16 01:44:10;;;;;;;4.05;2.08;;;;;;;6.65;100.00;99678.38;674005;29;1801;-83
2022/02/16 01:44:31;;;;;;;3.78;2.08;;;;;;;6.68;100.00;99665.38;668618;29;3372;-82
2022/02/16 01:44:59;;;;;;;3.80;2.03;;;;;;;6.66;100.00;99690.50;670321;29;3265;-83
2022/02/16 01:45:35;;;;;;;4.13;2.20;;;;;;;6.62;100.00;99671.47;674641;29;1341;-84
2022/02/16 01:45:59;;;;;;;4.20;2.10;;;;;;;6.65;100.00;99686.19;671685;29;4447;-83
2022/02/16 01:46:31;;;;;;;4.88;2.13;;;;;;;6.69;100.00;99669.72;675206;29;1332;-84
2022/02/16 01:47:05;;;;;;;4.18;2.20;;;;;;;6.62;100.00;99696.59;671796;29;2025;-84
2022/02/16 01:47:36;;;;;;;4.57;2.10;;;;;;;6.60;100.00;99661.94;674661;29;2018;-83
2022/02/16 01:47:57;;;;;;;4.55;2.17;;;;;;;6.64;100.00;99674.91;674426;29;3459;-83
2022/02/16 01:48:21;;;;;;;5.00;2.20;;;;;;;6.67;100.00;99678.38;673804;29;2246;-84
2022/02/16 01:48:42;;;;;;;5.00;2.00;;;;;;;6.73;100.00;99663.63;675909;29;1942;-83
2022/02/16 01:49:11;;;;;;;4.15;2.10;;;;;;;6.78;100.00;99676.59;672022;29;4340;-84
2022/02/16 01:49:36;;;;;;;3.58;2.08;;;;;;;6.78;100.00;99656.69;674685;29;1589;-84
2022/02/16 01:50:00;;;;;;;3.38;1.88;;;;;;;6.87;100.00;99657.47;674400;29;874;-83
2022/02/16 01:50:21;;;;;;;3.45;1.88;;;;;;;6.86;100.00;99655.78;673097;29;1404;-83
2022/02/16 01:50:55;;;;;;;4.68;2.20;;;;;;;6.78;100.00;99687.84;676048;29;1690;-85
2022/02/16 01:51:41;;;;;;;4.32;2.00;;;;;;;6.75;100.00;99659.28;676186;29;3833;-83
2022/02/16 01:52:07;;;;;;;4.07;2.00;;;;;;;6.67;100.00;99689.63;676582;29;4340;-83
2022/02/16 01:52:34;;;;;;;3.00;1.80;;;;;;;6.62;100.00;99675.81;679106;28;1608;-84
2022/02/16 01:52:58;;;;;;;3.40;1.80;;;;;;;6.61;100.00;99658.50;680640;28;1594;-84
2022/02/16 01:53:34;;;;;;;3.45;2.10;;;;;;;6.58;100.00;99682.72;678428;29;1448;-84
2022/02/16 01:53:55;;;;;;;3.35;1.80;;;;;;;6.65;100.00;99657.59;677323;29;1744;-83
2022/02/16 01:54:16;;;;;;;3.13;1.60;;;;;;;6.68;100.00;99685.31;677505;29;3187;-84
2022/02/16 01:54:37;;;;;;;3.22;1.63;;;;;;;6.64;100.00;99658.47;676754;29;1472;-84
2022/02/16 01:55:09;;;;;;;3.55;1.90;;;;;;;6.64;100.00;99669.72;676935;29;4366;-83
2022/02/16 01:55:33;;;;;;;4.53;1.85;;;;;;;6.60;100.00;99673.19;676480;29;1802;-84
2022/02/16 01:55:54;;;;;;;3.57;1.70;;;;;;;6.62;100.00;99662.81;677521;29;1570;-84
2022/02/16 01:56:20;;;;;;;3.38;1.80;;;;;;;6.68;100.00;99674.91;677688;29;1384;-83
2022/02/16 01:56:55;;;;;;;;;;;;;;;;;;;;;
2022/02/16 01:57:22;;;;;;;4.45;2.00;;;;;;;6.71;100.00;99670.53;677304;29;1846;-83
2022/02/16 01:57:53;;;;;;;3.28;1.80;;;;;;;6.69;100.00;99672.31;669106;29;4531;-84
2022/02/16 01:58:35;;;;;;;4.80;1.92;;;;;;;6.65;100.00;99678.38;672315;29;1400;-84
2022/02/16 01:59:08;;;;;;;3.85;2.08;;;;;;;6.66;100.00;99674.94;670255;29;1453;-84
2022/02/16 01:59:56;;;;;;;3.78;2.15;;;;;;;6.65;100.00;99649.81;673819;29;1995;-84
2022/02/16 02:00:40;;;;;;;4.18;2.13;;;;;;;6.68;100.00;99656.72;677392;29;1087;-84
2022/02/16 02:01:06;;;;;;;4.13;2.10;;;;;;;6.65;100.00;99642.03;674023;29;4375;-84
2022/02/16 02:01:29;;;;;;;4.25;2.00;;;;;;;6.63;100.00;99635.97;675151;29;4010;-84
2022/02/16 02:01:57;;;;;;;4.40;2.10;;;;;;;6.57;100.00;99651.59;673863;29;1660;-83
2022/02/16 02:02:21;;;;;;;3.85;2.20;;;;;;;6.57;100.00;99641.19;680221;29;1462;-83
2022/02/16 02:02:46;;;;;;;5.72;2.40;;;;;;;6.59;100.00;99670.59;677360;29;1181;-83
2022/02/16 02:03:30;;;;;;;3.75;1.92;;;;;;;6.58;100.00;99638.59;677378;29;1985;-84
2022/02/16 02:03:57;;;;;;;4.47;2.05;;;;;;;6.61;100.00;99679.28;669811;29;4331;-83
2022/02/16 02:04:20;;;;;;;4.28;2.20;;;;;;;6.56;100.00;99658.53;676652;29;4323;-84